Upper Allen, Pennsylvania
Current Conditions -  °F | °C
As of 11:56 PM on Wednesday 22 Oct 2014 (Local Time) from KCXY Reporting Station
Overcast Overcast  
Wind Chill: 53°   Ceiling: 2600
Heat Index: 53°   Visibility: 10mi
Dew Point: 43°   Wind: 10mph
Humidity: 69%   Direction: 310°NW
Pressure: 29.93"   Gusts: 23mph
Location:  40.208°N, 77.0098°W
Report Text: KCXY 230356Z AUTO 31009G20KT 10SM OVC026 12/06 A2993 RMK AO2 SLP135 T01170061
Loading
Personal Weather Stations






























Interactive Weather Map New forecast layout! Learn more

10-Day Weather Forecast

Advertisements
Track Severe Weather on mobile